Time;durP1;ratioP1;P1;durP2;ratioP2;P2;SDS_P1;SDS_P2;PMS_P1;PMS_P2;Temp;Humidity;BMP_temperature;BMP_pressure;BME280_temperature;BME280_humidity;BME280_pressure;Samples;Min_cycle;Max_cycle;Signal;HPM_P1;HPM_P2
2022/05/07 00:00:41;;;;;;;3.22;2.90;;;;;;;;;;5047231;28;20373;-76
2022/05/07 00:03:07;;;;;;;1.15;1.15;;;;;;;;;;5045814;28;20123;-77
2022/05/07 00:05:33;;;;;;;4.20;2.95;;;;;;;;;;5042389;28;20087;-76
2022/05/07 00:07:59;;;;;;;3.15;2.53;;;;;;;;;;5047075;28;20036;-76
2022/05/07 00:10:25;;;;;;;2.08;1.75;;;;;;;;;;5045061;28;20514;-76
2022/05/07 00:12:51;;;;;;;6.45;3.35;;;;;;;;;;5044611;28;20037;-76
2022/05/07 00:15:17;;;;;;;5.47;2.00;;;;;;;;;;5046945;28;20029;-77
2022/05/07 00:18:01;;;;;;;1.52;1.40;;;;;;;;;;5046104;28;20031;-76
2022/05/07 00:20:27;;;;;;;2.17;2.08;;;;;;;;;;5044889;28;20048;-76
2022/05/07 00:22:53;;;;;;;0.95;0.95;;;;;;;;;;5048262;28;20029;-76
2022/05/07 00:25:19;;;;;;;4.18;2.40;;;;;;;;;;5050085;28;20029;-76
2022/05/07 00:27:45;;;;;;;2.25;1.52;;;;;;;;;;5051099;28;20460;-77
2022/05/07 00:30:12;;;;;;;1.50;1.42;;;;;;;;;;5046854;28;20036;-77
2022/05/07 00:32:38;;;;;;;1.10;1.08;;;;;;;;;;5050184;28;20487;-76
2022/05/07 00:35:04;;;;;;;2.30;1.83;;;;;;;;;;5049522;28;20203;-77
2022/05/07 00:37:29;;;;;;;0.88;0.88;;;;;;;;;;5048516;28;20032;-77
2022/05/07 00:39:55;;;;;;;1.23;1.17;;;;;;;;;;5044317;28;20112;-77
2022/05/07 00:42:21;;;;;;;2.63;1.63;;;;;;;;;;5043690;28;20029;-77
2022/05/07 00:44:47;;;;;;;1.60;1.50;;;;;;;;;;5044891;28;20033;-77
2022/05/07 00:47:21;;;;;;;1.65;1.55;;;;;;;;;;5048534;28;20522;-77
2022/05/07 00:49:51;;;;;;;2.35;1.40;;;;;;;;;;5048296;28;20166;-77
2022/05/07 00:52:18;;;;;;;0.82;0.82;;;;;;;;;;5047208;28;20480;-77
2022/05/07 00:54:44;;;;;;;1.38;1.27;;;;;;;;;;5048965;28;20021;-77
2022/05/07 00:57:10;;;;;;;4.07;1.17;;;;;;;;;;5050099;28;20447;-77
2022/05/07 00:59:36;;;;;;;1.48;1.38;;;;;;;;;;5050108;28;20052;-77
2022/05/07 01:02:02;;;;;;;1.92;1.70;;;;;;;;;;5050183;28;20032;-77
2022/05/07 01:04:28;;;;;;;3.72;2.40;;;;;;;;;;5047492;28;20738;-76
2022/05/07 01:06:54;;;;;;;1.60;1.50;;;;;;;;;;5048977;28;20033;-77
2022/05/07 01:09:20;;;;;;;1.00;0.88;;;;;;;;;;5049210;28;20475;-77
2022/05/07 01:11:46;;;;;;;2.40;1.48;;;;;;;;;;5048375;28;20043;-77
2022/05/07 01:14:13;;;;;;;5.78;1.92;;;;;;;;;;5046059;28;20020;-77
2022/05/07 01:16:38;;;;;;;13.15;2.47;;;;;;;;;;5046764;28;20419;-77
2022/05/07 01:19:04;;;;;;;2.40;1.27;;;;;;;;;;5048861;28;20031;-77
2022/05/07 01:21:30;;;;;;;1.83;1.73;;;;;;;;;;5045227;28;20025;-77
2022/05/07 01:23:56;;;;;;;2.17;1.83;;;;;;;;;;5043566;28;20028;-76
2022/05/07 01:26:24;;;;;;;1.73;1.63;;;;;;;;;;5049150;28;20021;-77
2022/05/07 01:28:50;;;;;;;1.90;1.75;;;;;;;;;;5049986;28;20029;-76
2022/05/07 01:31:16;;;;;;;0.82;0.82;;;;;;;;;;5046236;28;20037;-77
2022/05/07 01:33:42;;;;;;;1.00;0.82;;;;;;;;;;5045336;28;20017;-77
2022/05/07 01:36:11;;;;;;;1.52;1.40;;;;;;;;;;5045744;28;20021;-77
2022/05/07 01:38:37;;;;;;;2.05;1.05;;;;;;;;;;5047952;28;20025;-77
2022/05/07 01:41:03;;;;;;;1.83;1.73;;;;;;;;;;5049173;28;20075;-77
2022/05/07 01:43:32;;;;;;;1.05;0.90;;;;;;;;;;5047614;28;20037;-77
2022/05/07 01:45:59;;;;;;;2.97;1.13;;;;;;;;;;5047352;28;20021;-77
2022/05/07 01:48:25;;;;;;;2.85;1.17;;;;;;;;;;5048400;28;20076;-76
2022/05/07 01:50:50;;;;;;;1.30;1.02;;;;;;;;;;5048533;28;20033;-77
2022/05/07 01:53:16;;;;;;;5.53;0.70;;;;;;;;;;5046877;28;20028;-77
2022/05/07 01:55:43;;;;;;;2.90;1.60;;;;;;;;;;5047654;28;20025;-77
2022/05/07 01:58:11;;;;;;;1.05;1.02;;;;;;;;;;5046046;28;20044;-77
2022/05/07 02:00:37;;;;;;;1.88;1.60;;;;;;;;;;5047875;28;20025;-77
2022/05/07 02:03:03;;;;;;;0.95;0.95;;;;;;;;;;5046282;28;20041;-77
2022/05/07 02:05:29;;;;;;;1.00;0.82;;;;;;;;;;5046666;28;20099;-77
2022/05/07 02:07:56;;;;;;;3.33;1.77;;;;;;;;;;5045241;28;20390;-77
2022/05/07 02:10:22;;;;;;;3.38;2.15;;;;;;;;;;5048510;28;20025;-77
2022/05/07 02:12:49;;;;;;;1.50;1.40;;;;;;;;;;5048807;28;20064;-77
2022/05/07 02:15:15;;;;;;;1.65;1.27;;;;;;;;;;5048991;28;20025;-77
2022/05/07 02:17:41;;;;;;;1.67;1.35;;;;;;;;;;5039071;28;20036;-76
2022/05/07 02:20:08;;;;;;;1.02;0.98;;;;;;;;;;5048231;28;20037;-77
2022/05/07 02:22:34;;;;;;;2.15;1.58;;;;;;;;;;5049083;28;20052;-76
2022/05/07 02:25:00;;;;;;;1.17;0.90;;;;;;;;;;5048524;28;20040;-76
2022/05/07 02:27:26;;;;;;;5.22;2.05;;;;;;;;;;5047151;28;20411;-77
2022/05/07 02:29:52;;;;;;;1.70;1.33;;;;;;;;;;5045054;28;20111;-77
2022/05/07 02:32:18;;;;;;;0.82;0.82;;;;;;;;;;5042588;28;20463;-77
2022/05/07 02:34:44;;;;;;;4.40;2.15;;;;;;;;;;5047022;28;20479;-77
2022/05/07 02:37:10;;;;;;;0.80;0.80;;;;;;;;;;5048205;28;20029;-76
2022/05/07 02:39:36;;;;;;;0.35;0.35;;;;;;;;;;5046665;28;20025;-77
2022/05/07 02:44:47;;;;;;;0.38;0.38;;;;;;;;;;5048722;28;20067;-77
2022/05/07 02:47:13;;;;;;;5.15;1.20;;;;;;;;;;5047775;28;20041;-77
2022/05/07 02:49:39;;;;;;;0.38;0.38;;;;;;;;;;5043904;28;20119;-77
2022/05/07 02:52:05;;;;;;;0.82;0.82;;;;;;;;;;5046210;28;20025;-77
2022/05/07 02:54:31;;;;;;;1.23;1.13;;;;;;;;;;5047561;28;20031;-77
2022/05/07 02:56:57;;;;;;;1.88;1.45;;;;;;;;;;5047846;28;20079;-76
2022/05/07 02:59:23;;;;;;;1.45;0.73;;;;;;;;;;5044530;28;20070;-76
2022/05/07 03:01:49;;;;;;;1.13;0.57;;;;;;;;;;5039124;28;20057;-76
2022/05/07 03:04:15;;;;;;;0.40;0.40;;;;;;;;;;5046906;28;20073;-76
2022/05/07 03:06:41;;;;;;;0.40;0.38;;;;;;;;;;5046465;28;20032;-77
2022/05/07 03:09:07;;;;;;;0.08;0.08;;;;;;;;;;5046546;28;20368;-76
2022/05/07 03:11:34;;;;;;;1.48;0.68;;;;;;;;;;5042470;28;20171;-76
2022/05/07 03:14:02;;;;;;;0.70;0.70;;;;;;;;;;5045346;28;20041;-77
2022/05/07 03:16:28;;;;;;;1.77;1.15;;;;;;;;;;5031651;28;20029;-77
2022/05/07 03:18:53;;;;;;;0.85;0.85;;;;;;;;;;5042070;28;20475;-77
2022/05/07 03:21:19;;;;;;;1.38;0.80;;;;;;;;;;5047597;28;20035;-76
2022/05/07 03:23:46;;;;;;;0.68;0.68;;;;;;;;;;5046920;28;20463;-76
2022/05/07 03:26:12;;;;;;;0.75;0.40;;;;;;;;;;5045547;28;20155;-76
2022/05/07 03:28:38;;;;;;;1.13;0.95;;;;;;;;;;5048060;28;20532;-76
2022/05/07 03:31:04;;;;;;;1.88;1.30;;;;;;;;;;5044409;28;20029;-77
2022/05/07 03:33:30;;;;;;;0.65;0.65;;;;;;;;;;5047246;28;20033;-77
2022/05/07 03:35:56;;;;;;;1.05;0.93;;;;;;;;;;5045470;28;20078;-76
2022/05/07 03:38:22;;;;;;;0.32;0.32;;;;;;;;;;5047958;28;20740;-77
2022/05/07 03:40:48;;;;;;;0.35;0.35;;;;;;;;;;5046950;28;20108;-76
2022/05/07 03:43:14;;;;;;;0.35;0.35;;;;;;;;;;5046697;28;20037;-76
2022/05/07 03:45:40;;;;;;;0.22;0.22;;;;;;;;;;5044564;28;20022;-76
2022/05/07 03:48:06;;;;;;;0.38;0.38;;;;;;;;;;5042883;28;20025;-77
2022/05/07 03:50:32;;;;;;;0.00;0.00;;;;;;;;;;5046368;28;20033;-76
2022/05/07 03:55:43;;;;;;;0.38;0.30;;;;;;;;;;5047592;28;20078;-77
2022/05/07 03:58:15;;;;;;;0.43;0.43;;;;;;;;;;5053550;28;20032;-77
2022/05/07 04:00:45;;;;;;;0.55;0.55;;;;;;;;;;5051191;28;20049;-77
2022/05/07 04:03:11;;;;;;;0.30;0.30;;;;;;;;;;5045936;28;20025;-77
2022/05/07 04:05:37;;;;;;;1.35;0.88;;;;;;;;;;5050584;28;20025;-76
2022/05/07 04:08:03;;;;;;;0.93;0.85;;;;;;;;;;5045840;28;20483;-77
2022/05/07 04:10:29;;;;;;;0.35;0.35;;;;;;;;;;5048367;28;20028;-77
2022/05/07 04:12:55;;;;;;;4.80;0.80;;;;;;;;;;5041368;28;20040;-77
2022/05/07 04:15:22;;;;;;;0.28;0.28;;;;;;;;;;5047734;28;20025;-77
2022/05/07 04:17:48;;;;;;;0.08;0.08;;;;;;;;;;5049056;28;20028;-77
2022/05/07 04:20:14;;;;;;;0.68;0.68;;;;;;;;;;5049921;28;20028;-76
2022/05/07 04:22:40;;;;;;;2.55;0.80;;;;;;;;;;5047721;28;20029;-77
2022/05/07 04:25:07;;;;;;;0.25;0.17;;;;;;;;;;5045530;28;20041;-76
2022/05/07 04:27:33;;;;;;;1.83;1.08;;;;;;;;;;5048124;28;20392;-77
2022/05/07 04:29:59;;;;;;;0.13;0.13;;;;;;;;;;5046460;28;20335;-77
2022/05/07 04:32:25;;;;;;;0.10;0.10;;;;;;;;;;5050416;28;20059;-75
2022/05/07 04:34:51;;;;;;;0.35;0.35;;;;;;;;;;5049446;28;20028;-75
2022/05/07 04:37:17;;;;;;;2.15;0.35;;;;;;;;;;5048653;28;20021;-78
2022/05/07 04:39:43;;;;;;;0.10;0.10;;;;;;;;;;5051345;28;20017;-77
2022/05/07 04:42:09;;;;;;;0.32;0.30;;;;;;;;;;5048073;28;20029;-78
2022/05/07 04:44:36;;;;;;;0.30;0.30;;;;;;;;;;5049695;28;20090;-75
2022/05/07 04:47:01;;;;;;;8.48;1.23;;;;;;;;;;5048203;28;20088;-76
2022/05/07 04:49:27;;;;;;;0.60;0.60;;;;;;;;;;5040960;28;20021;-76
2022/05/07 04:51:53;;;;;;;0.75;0.75;;;;;;;;;;5051097;28;20434;-76
2022/05/07 04:54:20;;;;;;;0.17;0.17;;;;;;;;;;5049549;28;20091;-76
2022/05/07 04:56:49;;;;;;;0.15;0.15;;;;;;;;;;5047034;28;20105;-76
2022/05/07 04:59:16;;;;;;;0.60;0.50;;;;;;;;;;5049562;28;20049;-77
2022/05/07 05:01:42;;;;;;;1.17;0.47;;;;;;;;;;5048926;28;20056;-76
2022/05/07 05:04:08;;;;;;;0.28;0.28;;;;;;;;;;5046829;28;20051;-77
2022/05/07 05:06:34;;;;;;;0.80;0.52;;;;;;;;;;5049709;28;20116;-77
2022/05/07 05:09:00;;;;;;;5.28;0.73;;;;;;;;;;5049102;28;20530;-77
2022/05/07 05:11:26;;;;;;;1.20;0.93;;;;;;;;;;5050506;28;20028;-76
2022/05/07 05:13:52;;;;;;;0.20;0.20;;;;;;;;;;5050051;28;20027;-77
2022/05/07 05:16:18;;;;;;;2.90;0.75;;;;;;;;;;5048861;28;20025;-77
2022/05/07 05:18:44;;;;;;;0.57;0.52;;;;;;;;;;5046971;28;20029;-77
2022/05/07 05:21:10;;;;;;;0.43;0.43;;;;;;;;;;5048787;28;20032;-77
2022/05/07 05:23:36;;;;;;;9.95;2.95;;;;;;;;;;5051410;28;20282;-79
2022/05/07 05:26:02;;;;;;;0.52;0.52;;;;;;;;;;5056310;28;20041;-79
2022/05/07 05:28:28;;;;;;;0.30;0.30;;;;;;;;;;5046948;28;20104;-78
2022/05/07 05:30:56;;;;;;;0.50;0.47;;;;;;;;;;5048454;28;20584;-81
2022/05/07 05:33:23;;;;;;;0.65;0.47;;;;;;;;;;5040086;28;20451;-80
2022/05/07 05:35:49;;;;;;;0.20;0.20;;;;;;;;;;5047069;28;20049;-79
2022/05/07 05:38:15;;;;;;;0.63;0.63;;;;;;;;;;5040826;28;20021;-78
2022/05/07 05:40:41;;;;;;;0.60;0.43;;;;;;;;;;5044983;28;20506;-77
2022/05/07 05:43:07;;;;;;;0.52;0.52;;;;;;;;;;5046606;28;20028;-79
2022/05/07 05:45:34;;;;;;;3.63;1.00;;;;;;;;;;5049557;28;20033;-78
2022/05/07 05:48:01;;;;;;;0.20;0.20;;;;;;;;;;5049841;28;20475;-78
2022/05/07 05:50:28;;;;;;;0.77;0.45;;;;;;;;;;5050223;28;20420;-76
2022/05/07 05:52:54;;;;;;;0.10;0.10;;;;;;;;;;5049896;28;20032;-76
2022/05/07 05:55:20;;;;;;;0.28;0.15;;;;;;;;;;5048762;28;20892;-75
2022/05/07 05:57:46;;;;;;;0.63;0.57;;;;;;;;;;5046497;28;20459;-75
2022/05/07 06:00:12;;;;;;;2.10;1.85;;;;;;;;;;5046154;28;20025;-75
2022/05/07 06:02:38;;;;;;;1.55;0.82;;;;;;;;;;5049510;28;20553;-75
2022/05/07 06:05:04;;;;;;;0.35;0.30;;;;;;;;;;5042979;28;20132;-76
2022/05/07 06:07:30;;;;;;;0.15;0.15;;;;;;;;;;5048316;28;20071;-76
2022/05/07 06:09:56;;;;;;;0.60;0.60;;;;;;;;;;5047292;28;20041;-76
2022/05/07 06:12:22;;;;;;;0.30;0.30;;;;;;;;;;5045227;28;20025;-76
2022/05/07 06:14:48;;;;;;;0.00;0.00;;;;;;;;;;5048138;28;20017;-76
2022/05/07 06:17:14;;;;;;;0.13;0.13;;;;;;;;;;5049568;28;20040;-76
2022/05/07 06:19:40;;;;;;;12.23;1.00;;;;;;;;;;5041842;28;20017;-76
2022/05/07 06:22:06;;;;;;;0.38;0.38;;;;;;;;;;5037793;28;20484;-77
2022/05/07 06:27:28;;;;;;;0.30;0.30;;;;;;;;;;5045573;28;20082;-76
2022/05/07 06:29:54;;;;;;;0.08;0.08;;;;;;;;;;5036944;28;20071;-76
2022/05/07 06:32:20;;;;;;;0.10;0.10;;;;;;;;;;5048645;28;20033;-77
2022/05/07 06:34:46;;;;;;;0.38;0.38;;;;;;;;;;5040333;28;20021;-77
2022/05/07 06:37:12;;;;;;;1.98;1.40;;;;;;;;;;5049373;28;20391;-78
2022/05/07 06:39:40;;;;;;;0.65;0.38;;;;;;;;;;5049021;28;20032;-77
2022/05/07 06:42:07;;;;;;;1.10;0.95;;;;;;;;;;5049591;28;20033;-77
2022/05/07 06:44:33;;;;;;;0.25;0.25;;;;;;;;;;5046916;28;20037;-77
2022/05/07 06:46:59;;;;;;;0.73;0.65;;;;;;;;;;5048734;28;20033;-76
2022/05/07 06:49:25;;;;;;;0.17;0.17;;;;;;;;;;5044819;28;20025;-77
2022/05/07 06:51:51;;;;;;;0.52;0.40;;;;;;;;;;5044195;28;20079;-77
2022/05/07 06:54:17;;;;;;;9.30;0.60;;;;;;;;;;5043601;28;20044;-77
2022/05/07 06:56:43;;;;;;;1.85;0.52;;;;;;;;;;5036655;28;20295;-75
2022/05/07 06:59:12;;;;;;;8.07;1.25;;;;;;;;;;5040182;28;20112;-77
2022/05/07 07:01:38;;;;;;;0.13;0.13;;;;;;;;;;5045911;28;20449;-76
2022/05/07 07:04:04;;;;;;;0.28;0.28;;;;;;;;;;5045105;28;20057;-75
2022/05/07 07:06:30;;;;;;;0.30;0.30;;;;;;;;;;5044513;28;20407;-75
2022/05/07 07:08:56;;;;;;;0.70;0.47;;;;;;;;;;5046481;28;20291;-76
2022/05/07 07:11:22;;;;;;;1.00;0.43;;;;;;;;;;5046371;28;20048;-78
2022/05/07 07:13:48;;;;;;;0.65;0.47;;;;;;;;;;5039383;28;20480;-77
2022/05/07 07:16:14;;;;;;;0.03;0.03;;;;;;;;;;5046840;28;20562;-77
2022/05/07 07:18:40;;;;;;;0.22;0.22;;;;;;;;;;5048627;28;20024;-77
2022/05/07 07:21:12;;;;;;;0.47;0.47;;;;;;;;;;5045549;28;20036;-80
2022/05/07 07:23:38;;;;;;;0.10;0.10;;;;;;;;;;5037057;28;20025;-82
2022/05/07 07:26:04;;;;;;;0.32;0.32;;;;;;;;;;5038931;28;20112;-79
2022/05/07 07:28:31;;;;;;;0.15;0.15;;;;;;;;;;5041219;28;20113;-79
2022/05/07 07:30:58;;;;;;;0.80;0.65;;;;;;;;;;5035242;28;20021;-79
2022/05/07 07:33:24;;;;;;;0.10;0.10;;;;;;;;;;5044888;28;20120;-80
2022/05/07 07:35:49;;;;;;;0.22;0.22;;;;;;;;;;5047781;28;20120;-80
2022/05/07 07:38:15;;;;;;;0.38;0.38;;;;;;;;;;5045684;28;20021;-79
2022/05/07 07:40:43;;;;;;;0.98;0.98;;;;;;;;;;5043075;28;20033;-79
2022/05/07 07:43:10;;;;;;;6.97;0.55;;;;;;;;;;5045970;28;20599;-80
2022/05/07 07:48:21;;;;;;;0.65;0.63;;;;;;;;;;5047219;28;20060;-81
2022/05/07 07:50:50;;;;;;;1.17;0.55;;;;;;;;;;5044682;28;20544;-79
2022/05/07 07:53:16;;;;;;;0.63;0.63;;;;;;;;;;5046474;28;20071;-79
2022/05/07 07:55:42;;;;;;;0.57;0.47;;;;;;;;;;5045741;28;20025;-78
2022/05/07 07:58:09;;;;;;;14.70;0.95;;;;;;;;;;5047415;28;20048;-78
2022/05/07 08:00:38;;;;;;;0.75;0.52;;;;;;;;;;5044993;28;20048;-77
2022/05/07 08:03:05;;;;;;;0.20;0.17;;;;;;;;;;5045935;28;20846;-78
2022/05/07 08:05:32;;;;;;;0.10;0.10;;;;;;;;;;5044831;28;20025;-79
2022/05/07 08:13:32;;;;;;;0.98;0.65;;;;;;;;;;5045384;28;20118;-81
2022/05/07 08:15:58;;;;;;;0.70;0.60;;;;;;;;;;5038432;28;20599;-79
2022/05/07 08:18:24;;;;;;;0.25;0.25;;;;;;;;;;5046110;28;20104;-77
2022/05/07 08:20:50;;;;;;;0.73;0.70;;;;;;;;;;5044040;28;20124;-78
2022/05/07 08:23:16;;;;;;;0.60;0.60;;;;;;;;;;5042039;28;20387;-78
2022/05/07 08:25:42;;;;;;;0.75;0.75;;;;;;;;;;5042014;28;20040;-77
2022/05/07 08:28:08;;;;;;;0.40;0.40;;;;;;;;;;5044813;28;20025;-79
2022/05/07 08:30:36;;;;;;;0.55;0.55;;;;;;;;;;5047677;28;20021;-79
2022/05/07 08:33:02;;;;;;;0.40;0.40;;;;;;;;;;5046939;28;20037;-79
2022/05/07 08:35:28;;;;;;;0.60;0.52;;;;;;;;;;5045956;28;20509;-79
2022/05/07 08:37:54;;;;;;;0.30;0.30;;;;;;;;;;5046661;28;20029;-79
2022/05/07 08:40:20;;;;;;;0.32;0.32;;;;;;;;;;5047254;28;20037;-79
2022/05/07 08:42:46;;;;;;;0.20;0.20;;;;;;;;;;5049018;28;20025;-79
2022/05/07 08:45:12;;;;;;;0.90;0.40;;;;;;;;;;5047022;28;20028;-79
2022/05/07 08:47:39;;;;;;;2.20;1.02;;;;;;;;;;5049230;28;20044;-79
2022/05/07 08:50:06;;;;;;;0.55;0.55;;;;;;;;;;5050490;28;20041;-79
2022/05/07 08:52:33;;;;;;;0.45;0.45;;;;;;;;;;5049618;28;20021;-78
2022/05/07 08:54:59;;;;;;;1.02;1.02;;;;;;;;;;5043526;28;20029;-78
2022/05/07 08:57:25;;;;;;;0.20;0.20;;;;;;;;;;5047578;28;20113;-80
2022/05/07 08:59:51;;;;;;;1.27;0.63;;;;;;;;;;5045449;28;20057;-79
2022/05/07 09:02:18;;;;;;;6.20;0.55;;;;;;;;;;5048291;28;20029;-78
2022/05/07 09:04:56;;;;;;;2.45;0.70;;;;;;;;;;5038915;28;20075;-78
2022/05/07 09:07:22;;;;;;;0.90;0.90;;;;;;;;;;5044786;28;20372;-78
2022/05/07 09:09:49;;;;;;;5.50;0.85;;;;;;;;;;5049056;28;20037;-78
2022/05/07 09:12:30;;;;;;;1.13;0.70;;;;;;;;;;5050936;28;20032;-77
2022/05/07 09:15:03;;;;;;;1.15;0.75;;;;;;;;;;5048358;28;20078;-78
2022/05/07 09:17:29;;;;;;;1.35;0.85;;;;;;;;;;5043223;28;20116;-77
2022/05/07 09:19:55;;;;;;;0.98;0.90;;;;;;;;;;5045891;28;20024;-77
2022/05/07 09:22:21;;;;;;;3.40;0.88;;;;;;;;;;5050557;28;20040;-80
2022/05/07 09:24:56;;;;;;;0.88;0.85;;;;;;;;;;5044795;28;20030;-80
2022/05/07 09:27:23;;;;;;;0.32;0.30;;;;;;;;;;5046291;28;20029;-80
2022/05/07 09:30:02;;;;;;;0.75;0.65;;;;;;;;;;5045849;28;20379;-78
2022/05/07 09:32:35;;;;;;;0.82;0.77;;;;;;;;;;5040166;28;20027;-79
2022/05/07 09:37:46;;;;;;;1.05;0.98;;;;;;;;;;5049454;28;20125;-80
2022/05/07 09:40:12;;;;;;;1.00;0.45;;;;;;;;;;5046995;28;20487;-79
2022/05/07 09:42:41;;;;;;;0.32;0.32;;;;;;;;;;5053389;28;20478;-83
2022/05/07 09:45:07;;;;;;;1.25;0.85;;;;;;;;;;5047710;28;20504;-80
2022/05/07 09:47:34;;;;;;;1.08;0.95;;;;;;;;;;5042620;28;20065;-83
2022/05/07 09:50:23;;;;;;;1.08;0.73;;;;;;;;;;5046190;28;20029;-85
2022/05/07 09:58:19;;;;;;;3.83;1.15;;;;;;;;;;5044798;28;20044;-84
2022/05/07 10:01:07;;;;;;;0.10;0.10;;;;;;;;;;5042122;28;20029;-85
2022/05/07 10:03:56;;;;;;;1.65;0.85;;;;;;;;;;5030601;28;20120;-84
2022/05/07 10:06:40;;;;;;;0.47;0.47;;;;;;;;;;5030276;28;20037;-83
2022/05/07 10:09:23;;;;;;;0.10;0.10;;;;;;;;;;5050439;28;20028;-85
2022/05/07 10:11:56;;;;;;;0.10;0.10;;;;;;;;;;5049682;28;20502;-85
2022/05/07 10:14:26;;;;;;;0.32;0.32;;;;;;;;;;5048562;28;20100;-85
2022/05/07 10:17:09;;;;;;;0.53;0.53;;;;;;;;;;5038187;28;20025;-85
2022/05/07 10:19:35;;;;;;;0.80;0.77;;;;;;;;;;5050055;28;20483;-84
2022/05/07 10:22:01;;;;;;;0.13;0.13;;;;;;;;;;5049857;28;20117;-84
2022/05/07 10:24:27;;;;;;;1.65;1.00;;;;;;;;;;5048185;28;20650;-85
2022/05/07 10:26:53;;;;;;;11.35;0.90;;;;;;;;;;5049269;28;20032;-86
2022/05/07 10:29:26;;;;;;;0.55;0.52;;;;;;;;;;5049942;28;20029;-86
2022/05/07 10:32:05;;;;;;;1.17;0.95;;;;;;;;;;5049673;28;20024;-85
2022/05/07 10:34:31;;;;;;;0.85;0.85;;;;;;;;;;5048897;28;20025;-84
2022/05/07 10:37:06;;;;;;;0.38;0.38;;;;;;;;;;5049249;28;20025;-85
2022/05/07 10:39:33;;;;;;;0.30;0.30;;;;;;;;;;5049737;28;20025;-85
2022/05/07 10:42:02;;;;;;;0.47;0.47;;;;;;;;;;5047921;28;20059;-86
2022/05/07 10:44:30;;;;;;;0.30;0.30;;;;;;;;;;5040142;28;20037;-84
2022/05/07 10:46:56;;;;;;;0.20;0.20;;;;;;;;;;5047021;28;20063;-85
2022/05/07 10:49:22;;;;;;;0.70;0.55;;;;;;;;;;5049633;28;20448;-86
2022/05/07 10:51:51;;;;;;;0.75;0.75;;;;;;;;;;5036526;28;20025;-84
2022/05/07 10:54:18;;;;;;;2.30;0.52;;;;;;;;;;5050544;28;20021;-86
2022/05/07 10:56:48;;;;;;;0.52;0.30;;;;;;;;;;5043984;28;20025;-86
2022/05/07 10:59:14;;;;;;;0.65;0.65;;;;;;;;;;5037761;28;20025;-77
2022/05/07 11:01:40;;;;;;;1.42;1.33;;;;;;;;;;5048261;28;20044;-76
2022/05/07 11:04:07;;;;;;;0.20;0.20;;;;;;;;;;5046791;28;20044;-76
2022/05/07 11:06:34;;;;;;;0.75;0.57;;;;;;;;;;5046655;28;20098;-77
2022/05/07 11:09:00;;;;;;;1.08;0.90;;;;;;;;;;5047655;28;20058;-76
2022/05/07 11:11:26;;;;;;;0.73;0.20;;;;;;;;;;5047945;28;20037;-81
2022/05/07 11:13:52;;;;;;;0.75;0.75;;;;;;;;;;5048163;28;20032;-78
2022/05/07 11:16:19;;;;;;;2.10;1.00;;;;;;;;;;5030218;28;20032;-79
2022/05/07 11:18:49;;;;;;;0.90;0.90;;;;;;;;;;5026997;28;20108;-80
2022/05/07 11:21:15;;;;;;;0.52;0.38;;;;;;;;;;5045782;28;20057;-77
2022/05/07 11:23:43;;;;;;;0.55;0.47;;;;;;;;;;5042130;28;20029;-79
2022/05/07 11:26:13;;;;;;;0.45;0.45;;;;;;;;;;5041814;28;20021;-82
2022/05/07 11:28:40;;;;;;;0.47;0.47;;;;;;;;;;5047907;28;20028;-78
2022/05/07 11:31:07;;;;;;;1.90;0.82;;;;;;;;;;5047810;28;20032;-80
2022/05/07 11:33:33;;;;;;;0.25;0.25;;;;;;;;;;5046202;28;20025;-81
2022/05/07 11:36:00;;;;;;;0.50;0.38;;;;;;;;;;5046460;28;20052;-79
2022/05/07 11:38:26;;;;;;;1.35;1.25;;;;;;;;;;5046609;28;20025;-80
2022/05/07 11:40:52;;;;;;;0.43;0.38;;;;;;;;;;5042049;28;20029;-83
2022/05/07 11:46:06;;;;;;;1.02;0.95;;;;;;;;;;5041961;28;20063;-80
2022/05/07 11:48:32;;;;;;;0.50;0.50;;;;;;;;;;5045762;28;20030;-80
2022/05/07 11:51:01;;;;;;;1.50;1.20;;;;;;;;;;5047178;28;20025;-85
2022/05/07 11:53:28;;;;;;;0.22;0.22;;;;;;;;;;5046923;28;20234;-80
2022/05/07 11:56:04;;;;;;;0.57;0.40;;;;;;;;;;5046297;28;20025;-80
2022/05/07 11:58:38;;;;;;;0.25;0.25;;;;;;;;;;5033112;28;20032;-77
2022/05/07 12:01:05;;;;;;;1.00;0.55;;;;;;;;;;5044958;28;20025;-85
2022/05/07 12:03:31;;;;;;;0.35;0.35;;;;;;;;;;5037536;28;20052;-82
2022/05/07 12:05:58;;;;;;;13.30;0.75;;;;;;;;;;5045953;28;20021;-86
2022/05/07 12:08:25;;;;;;;0.17;0.17;;;;;;;;;;5047282;28;20025;-84
2022/05/07 12:10:54;;;;;;;0.35;0.30;;;;;;;;;;5044649;28;20025;-84
2022/05/07 12:13:21;;;;;;;0.93;0.93;;;;;;;;;;5043185;28;20156;-82
2022/05/07 12:18:32;;;;;;;0.50;0.50;;;;;;;;;;5047334;28;20110;-81
2022/05/07 12:20:58;;;;;;;0.52;0.52;;;;;;;;;;5048076;28;20638;-80
2022/05/07 12:31:39;;;;;;;0.40;0.40;;;;;;;;;;5048980;28;20036;-81
2022/05/07 12:34:04;;;;;;;0.68;0.68;;;;;;;;;;5046611;28;20780;-83
2022/05/07 12:36:31;;;;;;;2.38;0.80;;;;;;;;;;5048015;28;20031;-83
2022/05/07 12:38:59;;;;;;;0.38;0.35;;;;;;;;;;5051518;28;20025;-80
2022/05/07 12:41:26;;;;;;;0.30;0.30;;;;;;;;;;5047360;28;20025;-84
2022/05/07 12:43:52;;;;;;;1.35;0.80;;;;;;;;;;5051658;28;20036;-84
2022/05/07 12:46:19;;;;;;;4.00;1.45;;;;;;;;;;5049494;28;20029;-78
2022/05/07 12:48:45;;;;;;;0.38;0.38;;;;;;;;;;5044761;28;20025;-79
2022/05/07 12:51:11;;;;;;;1.55;1.40;;;;;;;;;;5036801;28;20590;-79
2022/05/07 12:53:45;;;;;;;1.92;0.80;;;;;;;;;;5044610;28;20151;-83
2022/05/07 12:56:11;;;;;;;0.28;0.28;;;;;;;;;;5045517;28;20074;-77
2022/05/07 12:58:37;;;;;;;0.88;0.22;;;;;;;;;;5045366;28;20120;-79
2022/05/07 13:01:03;;;;;;;0.25;0.25;;;;;;;;;;5043157;28;20025;-80
2022/05/07 13:03:29;;;;;;;0.35;0.35;;;;;;;;;;5040851;28;20045;-79
2022/05/07 13:05:55;;;;;;;4.85;3.40;;;;;;;;;;5044084;28;20028;-78
2022/05/07 13:08:21;;;;;;;1.38;1.10;;;;;;;;;;5045394;28;20387;-79
2022/05/07 13:10:47;;;;;;;1.15;0.50;;;;;;;;;;5044370;28;20028;-78
2022/05/07 13:13:13;;;;;;;0.40;0.40;;;;;;;;;;5048312;28;20029;-79
2022/05/07 13:15:39;;;;;;;6.80;4.10;;;;;;;;;;5048158;28;20033;-79
2022/05/07 13:18:06;;;;;;;4.35;1.95;;;;;;;;;;5050163;28;20021;-78
2022/05/07 13:20:31;;;;;;;17.35;0.90;;;;;;;;;;5048220;28;20099;-79
2022/05/07 13:22:57;;;;;;;0.47;0.47;;;;;;;;;;5048470;28;20476;-79
2022/05/07 13:25:24;;;;;;;2.60;1.05;;;;;;;;;;5039061;28;20468;-78
2022/05/07 13:27:50;;;;;;;0.10;0.10;;;;;;;;;;5042522;28;20043;-78
2022/05/07 13:30:17;;;;;;;72.10;28.98;;;;;;;;;;5046217;28;20503;-77
2022/05/07 13:32:43;;;;;;;47.85;24.33;;;;;;;;;;5049670;28;20056;-78
2022/05/07 13:35:09;;;;;;;27.10;13.35;;;;;;;;;;5047546;28;20043;-77
2022/05/07 13:37:36;;;;;;;115.45;49.45;;;;;;;;;;5048840;28;20045;-78
2022/05/07 13:40:02;;;;;;;74.78;39.75;;;;;;;;;;5043771;28;20052;-77
2022/05/07 13:42:28;;;;;;;33.05;16.52;;;;;;;;;;5045059;28;20055;-78
2022/05/07 13:44:54;;;;;;;48.70;22.35;;;;;;;;;;5044029;28;20394;-80
2022/05/07 13:47:21;;;;;;;6.30;3.50;;;;;;;;;;5046776;28;20029;-81
2022/05/07 13:49:47;;;;;;;3.92;0.90;;;;;;;;;;5042530;28;20543;-82
2022/05/07 13:52:13;;;;;;;8.25;5.32;;;;;;;;;;5045494;28;20040;-77
2022/05/07 13:54:39;;;;;;;1.20;0.82;;;;;;;;;;5047161;28;20455;-79
2022/05/07 13:57:06;;;;;;;2.80;1.88;;;;;;;;;;5043770;28;20036;-81
2022/05/07 13:59:32;;;;;;;1.33;0.93;;;;;;;;;;5048654;28;20028;-81
2022/05/07 14:01:58;;;;;;;0.68;0.65;;;;;;;;;;5046575;28;20037;-81
2022/05/07 14:04:26;;;;;;;0.40;0.40;;;;;;;;;;5043984;28;20118;-79
2022/05/07 14:06:53;;;;;;;0.93;0.75;;;;;;;;;;5046429;28;20037;-81
2022/05/07 14:09:19;;;;;;;0.70;0.63;;;;;;;;;;5048677;28;20029;-81
2022/05/07 14:11:45;;;;;;;1.65;1.08;;;;;;;;;;5046788;28;20040;-81
2022/05/07 14:14:11;;;;;;;1.50;0.60;;;;;;;;;;5049025;28;20017;-81
2022/05/07 14:16:36;;;;;;;0.57;0.40;;;;;;;;;;5048095;28;20078;-81
2022/05/07 14:19:04;;;;;;;1.40;1.02;;;;;;;;;;5045339;28;20029;-81
2022/05/07 14:21:30;;;;;;;1.98;1.05;;;;;;;;;;5046845;28;20407;-81
2022/05/07 14:23:56;;;;;;;0.57;0.57;;;;;;;;;;5043792;28;20052;-80
2022/05/07 14:26:22;;;;;;;0.65;0.35;;;;;;;;;;5044516;28;20044;-80
2022/05/07 14:28:51;;;;;;;0.75;0.75;;;;;;;;;;5046446;28;20017;-79
2022/05/07 14:31:17;;;;;;;0.95;0.75;;;;;;;;;;5048415;28;20025;-80
2022/05/07 14:33:45;;;;;;;0.13;0.13;;;;;;;;;;5044736;28;20047;-80
2022/05/07 14:36:11;;;;;;;0.22;0.20;;;;;;;;;;5045339;28;20036;-81
2022/05/07 14:38:37;;;;;;;0.40;0.40;;;;;;;;;;5036477;28;20067;-82
2022/05/07 14:41:02;;;;;;;10.50;0.85;;;;;;;;;;5044647;28;20036;-81
2022/05/07 14:43:28;;;;;;;0.60;0.45;;;;;;;;;;5045025;28;20048;-81
2022/05/07 14:45:54;;;;;;;1.50;1.10;;;;;;;;;;5034083;28;20032;-81
2022/05/07 14:48:20;;;;;;;0.73;0.50;;;;;;;;;;5044734;28;20104;-82
2022/05/07 14:50:46;;;;;;;0.47;0.47;;;;;;;;;;5049558;28;20174;-81
2022/05/07 14:53:13;;;;;;;1.35;0.60;;;;;;;;;;5047008;28;20032;-82
2022/05/07 14:55:39;;;;;;;1.17;0.85;;;;;;;;;;5038082;28;20043;-78
2022/05/07 14:58:05;;;;;;;0.22;0.22;;;;;;;;;;5045431;28;20837;-82
2022/05/07 15:00:31;;;;;;;0.90;0.65;;;;;;;;;;5046584;28;20148;-80
2022/05/07 15:02:57;;;;;;;0.20;0.20;;;;;;;;;;5041098;28;20056;-81
2022/05/07 15:05:23;;;;;;;0.30;0.30;;;;;;;;;;5047225;28;20043;-81
2022/05/07 15:07:48;;;;;;;0.30;0.30;;;;;;;;;;5040673;28;20477;-79
2022/05/07 15:13:01;;;;;;;0.40;0.40;;;;;;;;;;5042185;28;20120;-81
2022/05/07 15:15:27;;;;;;;0.20;0.20;;;;;;;;;;5045006;28;20060;-80
2022/05/07 15:17:53;;;;;;;0.47;0.47;;;;;;;;;;5042535;28;20114;-82
2022/05/07 15:20:19;;;;;;;12.63;5.95;;;;;;;;;;5046074;28;20132;-82
2022/05/07 15:22:45;;;;;;;0.45;0.20;;;;;;;;;;5048121;28;20033;-85